Terminal Aerodrome Forecast
Issued by NWS Cleveland, OH

Home | Current Version | Previous Version | Graphics & Text | Print | Product List | Glossary On
Versions: 1 2 3 4 5 6 7 8 9 10 11 12 13 14 15 16 17 18
000
FTUS41 KCLE 032000 AAA
TAFERI
TAF AMD
KERI 032018Z 0320/0418 16015G25KT 6SM -FZRA OVC035
      TEMPO 0320/0324 3SM -FZRA OVC020
     FM040000 18015G22KT 4SM -RA BR OVC008
     FM040300 20015G25KT 4SM -SHRA BR OVC008
     FM040800 25014G22KT 4SM -SN BR OVC012=

USA.gov is the U.S. government's official web portal to all federal, state and local government web resources and services.